Black Creek, Georgia
Current Conditions -  °F | °C
As of 3:58 AM on Friday 24 Oct 2014 (Local Time) from KLHW Reporting Station
Clear Clear  
Wind Chill: 47°   Ceiling: Unl
Heat Index: 47°   Visibility: 10mi
Dew Point: 45°   Wind: 0mph
Humidity: 91%   Direction: NA
Pressure: 30"   Gusts: NA
Location:  32.121°N, 81.5002°W
Report Text: KLHW 240758Z AUTO 00000KT 10SM CLR 08/07 A3000 RMK AO2 SLP162 T00840070
Loading
Personal Weather Stations






























Interactive Weather Map
Tropical Storm Tracking
New forecast layout! Learn more

10-Day Weather Forecast

Advertisements
Track Severe Weather on mobile